sensor_id;sensor_type;location;lat;lon;timestamp;pressure;altitude;pressure_sealevel;temperature;humidity
72428;BME280;60419;48.880;18.036;2023-03-19T00:02:12;99265.41;;;7.48;49.08
72428;BME280;60419;48.880;18.036;2023-03-19T00:04:58;99172.31;;;6.78;48.99
72428;BME280;60419;48.880;18.036;2023-03-19T00:07:43;99262.44;;;7.49;48.33
72428;BME280;60419;48.880;18.036;2023-03-19T00:10:29;99265.56;;;7.62;47.73
72428;BME280;60419;48.880;18.036;2023-03-19T00:13:14;99270.03;;;7.37;48.97
72428;BME280;60419;48.880;18.036;2023-03-19T00:16:00;99280.34;;;7.15;49.37
72428;BME280;60419;48.880;18.036;2023-03-19T00:18:45;99276.94;;;7.53;48.22
72428;BME280;60419;48.880;18.036;2023-03-19T00:21:30;99277.63;;;7.25;49.10
72428;BME280;60419;48.880;18.036;2023-03-19T00:24:16;99277.88;;;7.23;49.29
72428;BME280;60419;48.880;18.036;2023-03-19T00:27:01;99269.16;;;6.97;50.47
72428;BME280;60419;48.880;18.036;2023-03-19T00:29:47;99270.13;;;6.52;51.01
72428;BME280;60419;48.880;18.036;2023-03-19T00:32:33;99268.59;;;7.00;49.82
72428;BME280;60419;48.880;18.036;2023-03-19T00:35:19;99252.88;;;7.28;49.65
72428;BME280;60419;48.880;18.036;2023-03-19T00:38:05;99258.09;;;7.09;49.82
72428;BME280;60419;48.880;18.036;2023-03-19T00:40:50;99249.25;;;7.53;48.52
72428;BME280;60419;48.880;18.036;2023-03-19T00:43:35;99256.53;;;6.98;49.75
72428;BME280;60419;48.880;18.036;2023-03-19T00:46:22;99249.22;;;6.49;51.01
72428;BME280;60419;48.880;18.036;2023-03-19T00:49:07;99239.59;;;6.32;52.26
72428;BME280;60419;48.880;18.036;2023-03-19T00:51:53;99251.72;;;6.14;52.97
72428;BME280;60419;48.880;18.036;2023-03-19T00:54:38;99243.56;;;6.45;52.23
72428;BME280;60419;48.880;18.036;2023-03-19T00:57:23;99255.31;;;6.70;51.63
72428;BME280;60419;48.880;18.036;2023-03-19T01:00:10;99244.59;;;7.19;50.48
72428;BME280;60419;48.880;18.036;2023-03-19T01:02:56;99241.38;;;7.17;49.97
72428;BME280;60419;48.880;18.036;2023-03-19T01:05:41;99229.81;;;6.67;51.24
72428;BME280;60419;48.880;18.036;2023-03-19T01:08:26;99231.41;;;6.73;51.82
72428;BME280;60419;48.880;18.036;2023-03-19T01:11:13;99223.28;;;7.33;49.95
72428;BME280;60419;48.880;18.036;2023-03-19T01:13:59;99229.59;;;6.53;52.00
72428;BME280;60419;48.880;18.036;2023-03-19T01:16:44;99225.38;;;6.97;51.49
72428;BME280;60419;48.880;18.036;2023-03-19T01:19:29;99231.78;;;6.51;52.44
72428;BME280;60419;48.880;18.036;2023-03-19T01:22:15;99220.97;;;6.66;52.38
72428;BME280;60419;48.880;18.036;2023-03-19T01:25:02;99230.22;;;6.95;51.91
72428;BME280;60419;48.880;18.036;2023-03-19T01:27:49;99226.41;;;7.06;50.90
72428;BME280;60419;48.880;18.036;2023-03-19T01:30:35;99232.28;;;6.53;52.88
72428;BME280;60419;48.880;18.036;2023-03-19T01:33:20;99230.59;;;6.78;51.96
72428;BME280;60419;48.880;18.036;2023-03-19T01:36:06;99230.63;;;7.17;50.91
72428;BME280;60419;48.880;18.036;2023-03-19T01:38:52;99233.25;;;6.83;51.97
72428;BME280;60419;48.880;18.036;2023-03-19T01:41:38;99220.38;;;6.80;51.79
72428;BME280;60419;48.880;18.036;2023-03-19T01:44:28;99204.28;;;6.75;51.47
72428;BME280;60419;48.880;18.036;2023-03-19T01:47:17;99219.22;;;7.36;49.85
72428;BME280;60419;48.880;18.036;2023-03-19T01:50:03;99221.34;;;7.44;50.04
72428;BME280;60419;48.880;18.036;2023-03-19T01:52:49;99216.44;;;7.56;49.16
72428;BME280;60419;48.880;18.036;2023-03-19T01:55:34;99205.25;;;7.73;48.95
72428;BME280;60419;48.880;18.036;2023-03-19T01:58:20;99219.88;;;7.22;49.87
72428;BME280;60419;48.880;18.036;2023-03-19T02:01:06;99216.66;;;7.60;48.85
72428;BME280;60419;48.880;18.036;2023-03-19T02:03:51;99218.75;;;7.23;50.50
72428;BME280;60419;48.880;18.036;2023-03-19T02:06:38;99192.66;;;7.29;49.59
72428;BME280;60419;48.880;18.036;2023-03-19T02:09:26;99206.94;;;6.85;50.63
72428;BME280;60419;48.880;18.036;2023-03-19T02:12:12;99215.28;;;7.23;50.43
72428;BME280;60419;48.880;18.036;2023-03-19T02:14:58;99224.34;;;6.93;50.88
72428;BME280;60419;48.880;18.036;2023-03-19T02:17:43;99204.19;;;7.35;49.99
72428;BME280;60419;48.880;18.036;2023-03-19T02:20:32;99212.09;;;7.16;50.32
72428;BME280;60419;48.880;18.036;2023-03-19T02:26:38;99208.94;;;7.08;49.89
72428;BME280;60419;48.880;18.036;2023-03-19T02:29:25;99222.88;;;7.10;50.35
72428;BME280;60419;48.880;18.036;2023-03-19T02:32:10;99231.44;;;7.18;50.12
72428;BME280;60419;48.880;18.036;2023-03-19T02:34:56;99224.06;;;7.33;50.08
72428;BME280;60419;48.880;18.036;2023-03-19T02:37:42;99219.09;;;7.17;50.03
72428;BME280;60419;48.880;18.036;2023-03-19T02:40:29;99216.00;;;6.94;50.63
72428;BME280;60419;48.880;18.036;2023-03-19T02:43:15;99214.69;;;6.86;50.73
72428;BME280;60419;48.880;18.036;2023-03-19T02:46:02;99215.63;;;7.16;49.92
72428;BME280;60419;48.880;18.036;2023-03-19T02:48:48;99200.28;;;7.17;49.36
72428;BME280;60419;48.880;18.036;2023-03-19T02:51:33;99205.53;;;7.37;48.78
72428;BME280;60419;48.880;18.036;2023-03-19T02:54:19;99201.31;;;7.60;48.48
72428;BME280;60419;48.880;18.036;2023-03-19T02:57:04;99208.03;;;7.63;48.48
72428;BME280;60419;48.880;18.036;2023-03-19T02:59:50;99208.41;;;7.80;48.45
72428;BME280;60419;48.880;18.036;2023-03-19T03:02:35;99209.00;;;7.38;49.24
72428;BME280;60419;48.880;18.036;2023-03-19T03:05:20;99210.88;;;8.06;47.15
72428;BME280;60419;48.880;18.036;2023-03-19T03:08:06;99203.13;;;7.99;47.12
72428;BME280;60419;48.880;18.036;2023-03-19T03:10:51;99207.44;;;8.24;46.43
72428;BME280;60419;48.880;18.036;2023-03-19T03:13:36;99202.00;;;8.53;45.90
72428;BME280;60419;48.880;18.036;2023-03-19T03:16:22;99186.91;;;8.33;45.99
72428;BME280;60419;48.880;18.036;2023-03-19T03:19:07;99203.66;;;8.73;45.13
72428;BME280;60419;48.880;18.036;2023-03-19T03:21:52;99191.19;;;8.77;44.86
72428;BME280;60419;48.880;18.036;2023-03-19T03:24:38;99198.84;;;8.70;45.50
72428;BME280;60419;48.880;18.036;2023-03-19T03:27:23;99213.31;;;8.31;46.12
72428;BME280;60419;48.880;18.036;2023-03-19T03:30:09;99195.88;;;8.48;45.40
72428;BME280;60419;48.880;18.036;2023-03-19T03:32:55;99198.56;;;8.00;46.85
72428;BME280;60419;48.880;18.036;2023-03-19T03:35:40;99202.38;;;7.93;47.06
72428;BME280;60419;48.880;18.036;2023-03-19T03:38:26;99211.44;;;7.73;47.96
72428;BME280;60419;48.880;18.036;2023-03-19T03:41:11;99210.22;;;7.90;47.78
72428;BME280;60419;48.880;18.036;2023-03-19T03:43:57;99202.06;;;7.71;47.64
72428;BME280;60419;48.880;18.036;2023-03-19T03:46:42;99204.91;;;7.11;49.45
72428;BME280;60419;48.880;18.036;2023-03-19T03:49:27;99209.25;;;7.75;47.78
72428;BME280;60419;48.880;18.036;2023-03-19T03:52:13;99210.88;;;8.06;46.68
72428;BME280;60419;48.880;18.036;2023-03-19T03:54:59;99211.56;;;8.16;46.67
72428;BME280;60419;48.880;18.036;2023-03-19T03:57:44;99186.56;;;8.16;46.53
72428;BME280;60419;48.880;18.036;2023-03-19T04:00:30;99210.31;;;8.33;46.46
72428;BME280;60419;48.880;18.036;2023-03-19T04:03:15;99212.38;;;8.41;46.16
72428;BME280;60419;48.880;18.036;2023-03-19T04:06:01;99203.78;;;8.15;46.39
72428;BME280;60419;48.880;18.036;2023-03-19T04:08:46;99194.19;;;7.80;47.36
72428;BME280;60419;48.880;18.036;2023-03-19T04:11:34;99204.34;;;7.53;48.46
72428;BME280;60419;48.880;18.036;2023-03-19T04:14:19;99214.09;;;7.44;48.47
72428;BME280;60419;48.880;18.036;2023-03-19T04:17:04;99211.44;;;7.73;48.11
72428;BME280;60419;48.880;18.036;2023-03-19T04:19:50;99215.66;;;7.50;48.31
72428;BME280;60419;48.880;18.036;2023-03-19T04:22:36;99212.81;;;8.00;47.09
72428;BME280;60419;48.880;18.036;2023-03-19T04:25:21;99211.03;;;7.17;49.04
72428;BME280;60419;48.880;18.036;2023-03-19T04:28:07;99208.63;;;7.15;49.73
72428;BME280;60419;48.880;18.036;2023-03-19T04:31:01;99213.66;;;7.66;48.43
72428;BME280;60419;48.880;18.036;2023-03-19T04:33:47;99222.47;;;7.32;49.14
72428;BME280;60419;48.880;18.036;2023-03-19T04:36:32;99228.09;;;7.36;49.32
72428;BME280;60419;48.880;18.036;2023-03-19T04:39:17;99227.13;;;7.22;49.07
72428;BME280;60419;48.880;18.036;2023-03-19T04:42:04;99235.53;;;7.05;50.13
72428;BME280;60419;48.880;18.036;2023-03-19T04:44:50;99215.97;;;6.99;49.67
72428;BME280;60419;48.880;18.036;2023-03-19T04:47:35;99236.75;;;7.28;49.49
72428;BME280;60419;48.880;18.036;2023-03-19T04:50:21;99194.22;;;6.46;50.93
72428;BME280;60419;48.880;18.036;2023-03-19T04:53:06;99220.34;;;6.85;50.21
72428;BME280;60419;48.880;18.036;2023-03-19T04:55:52;99227.31;;;6.86;50.59
72428;BME280;60419;48.880;18.036;2023-03-19T04:58:37;99218.69;;;6.14;52.99
72428;BME280;60419;48.880;18.036;2023-03-19T05:01:23;99223.84;;;6.00;52.96
72428;BME280;60419;48.880;18.036;2023-03-19T05:04:08;99228.41;;;5.79;53.53
72428;BME280;60419;48.880;18.036;2023-03-19T05:06:53;99232.91;;;5.12;56.37
72428;BME280;60419;48.880;18.036;2023-03-19T05:09:39;99238.84;;;5.40;55.07
72428;BME280;60419;48.880;18.036;2023-03-19T05:12:24;99232.97;;;5.73;54.15
72428;BME280;60419;48.880;18.036;2023-03-19T05:15:11;99229.19;;;5.18;55.79
72428;BME280;60419;48.880;18.036;2023-03-19T05:17:56;99244.72;;;5.26;55.96
72428;BME280;60419;48.880;18.036;2023-03-19T05:20:41;99251.34;;;4.98;56.88
72428;BME280;60419;48.880;18.036;2023-03-19T05:23:27;99253.59;;;5.42;55.92
72428;BME280;60419;48.880;18.036;2023-03-19T05:26:12;99255.22;;;5.84;54.43
72428;BME280;60419;48.880;18.036;2023-03-19T05:28:57;99259.94;;;5.05;56.50
72428;BME280;60419;48.880;18.036;2023-03-19T05:31:43;99267.69;;;4.44;58.63
72428;BME280;60419;48.880;18.036;2023-03-19T05:34:28;99256.56;;;4.67;58.33
72428;BME280;60419;48.880;18.036;2023-03-19T05:37:14;99261.88;;;4.62;58.30
72428;BME280;60419;48.880;18.036;2023-03-19T05:39:59;99260.97;;;4.99;57.46
72428;BME280;60419;48.880;18.036;2023-03-19T05:42:44;99261.00;;;5.04;57.49
72428;BME280;60419;48.880;18.036;2023-03-19T05:45:30;99261.13;;;4.67;58.37
72428;BME280;60419;48.880;18.036;2023-03-19T05:48:15;99261.78;;;4.95;58.53
72428;BME280;60419;48.880;18.036;2023-03-19T05:51:01;99267.69;;;5.07;58.23
72428;BME280;60419;48.880;18.036;2023-03-19T05:53:46;99254.63;;;5.21;56.66
72428;BME280;60419;48.880;18.036;2023-03-19T05:56:31;99258.97;;;5.52;56.05
72428;BME280;60419;48.880;18.036;2023-03-19T05:59:17;99261.47;;;4.91;58.39
72428;BME280;60419;48.880;18.036;2023-03-19T06:02:02;99262.16;;;5.34;56.47
72428;BME280;60419;48.880;18.036;2023-03-19T06:04:47;99262.69;;;5.51;56.23
72428;BME280;60419;48.880;18.036;2023-03-19T06:07:33;99257.59;;;6.16;54.01
72428;BME280;60419;48.880;18.036;2023-03-19T06:10:18;99251.41;;;6.31;53.54
72428;BME280;60419;48.880;18.036;2023-03-19T06:13:03;99258.66;;;7.06;51.54
72428;BME280;60419;48.880;18.036;2023-03-19T06:15:49;99253.50;;;6.50;51.78
72428;BME280;60419;48.880;18.036;2023-03-19T06:18:36;99246.13;;;6.86;50.90
72428;BME280;60419;48.880;18.036;2023-03-19T06:21:21;99248.31;;;7.23;50.71
72428;BME280;60419;48.880;18.036;2023-03-19T06:24:07;99236.16;;;7.36;49.01
72428;BME280;60419;48.880;18.036;2023-03-19T06:26:52;99243.13;;;7.47;48.53
72428;BME280;60419;48.880;18.036;2023-03-19T06:29:37;99256.31;;;7.78;48.58
72428;BME280;60419;48.880;18.036;2023-03-19T06:32:23;99245.50;;;7.83;48.61
72428;BME280;60419;48.880;18.036;2023-03-19T06:35:08;99269.00;;;8.02;47.43
72428;BME280;60419;48.880;18.036;2023-03-19T06:37:54;99266.13;;;7.59;47.93
72428;BME280;60419;48.880;18.036;2023-03-19T06:40:39;99271.78;;;7.91;47.69
72428;BME280;60419;48.880;18.036;2023-03-19T06:43:25;99268.84;;;8.46;46.65
72428;BME280;60419;48.880;18.036;2023-03-19T06:46:10;99266.06;;;8.03;47.27
72428;BME280;60419;48.880;18.036;2023-03-19T06:48:56;99254.75;;;7.72;47.09
72428;BME280;60419;48.880;18.036;2023-03-19T06:51:41;99266.25;;;7.38;48.10
72428;BME280;60419;48.880;18.036;2023-03-19T06:54:27;99265.59;;;7.12;48.71
72428;BME280;60419;48.880;18.036;2023-03-19T06:57:12;99263.00;;;7.81;47.00
72428;BME280;60419;48.880;18.036;2023-03-19T06:59:57;99258.66;;;8.43;45.60
72428;BME280;60419;48.880;18.036;2023-03-19T07:02:43;99255.53;;;8.60;44.93
72428;BME280;60419;48.880;18.036;2023-03-19T07:05:28;99253.03;;;8.63;45.11
72428;BME280;60419;48.880;18.036;2023-03-19T07:08:14;99253.34;;;9.05;44.15
72428;BME280;60419;48.880;18.036;2023-03-19T07:11:04;99247.19;;;9.42;43.16
72428;BME280;60419;48.880;18.036;2023-03-19T07:13:50;99238.84;;;9.58;42.30
72428;BME280;60419;48.880;18.036;2023-03-19T07:16:35;99245.13;;;9.53;41.75
72428;BME280;60419;48.880;18.036;2023-03-19T07:19:21;99244.09;;;9.68;42.00
72428;BME280;60419;48.880;18.036;2023-03-19T07:22:07;99245.03;;;9.77;41.54
72428;BME280;60419;48.880;18.036;2023-03-19T07:24:52;99255.25;;;9.94;40.94
72428;BME280;60419;48.880;18.036;2023-03-19T07:27:37;99251.69;;;9.99;40.31
72428;BME280;60419;48.880;18.036;2023-03-19T07:30:23;99259.50;;;10.00;40.16
72428;BME280;60419;48.880;18.036;2023-03-19T07:33:08;99265.63;;;10.20;39.58
72428;BME280;60419;48.880;18.036;2023-03-19T07:35:53;99261.97;;;10.71;39.41
72428;BME280;60419;48.880;18.036;2023-03-19T07:38:39;99260.88;;;10.58;39.08
72428;BME280;60419;48.880;18.036;2023-03-19T07:41:24;99258.56;;;10.79;38.43
72428;BME280;60419;48.880;18.036;2023-03-19T07:44:10;99267.59;;;10.88;38.67
72428;BME280;60419;48.880;18.036;2023-03-19T07:46:55;99263.75;;;10.61;38.62
72428;BME280;60419;48.880;18.036;2023-03-19T07:49:41;99262.06;;;10.52;38.93
72428;BME280;60419;48.880;18.036;2023-03-19T07:52:26;99265.06;;;10.64;38.47
72428;BME280;60419;48.880;18.036;2023-03-19T07:55:11;99263.16;;;10.51;39.03
72428;BME280;60419;48.880;18.036;2023-03-19T07:57:57;99259.38;;;10.93;38.52
72428;BME280;60419;48.880;18.036;2023-03-19T08:00:42;99264.09;;;10.88;38.97
72428;BME280;60419;48.880;18.036;2023-03-19T08:03:29;99249.94;;;10.77;38.98
72428;BME280;60419;48.880;18.036;2023-03-19T08:06:14;99227.72;;;10.80;38.67
72428;BME280;60419;48.880;18.036;2023-03-19T08:08:59;99255.75;;;10.43;38.86
72428;BME280;60419;48.880;18.036;2023-03-19T08:11:45;99245.16;;;10.74;38.98
72428;BME280;60419;48.880;18.036;2023-03-19T08:14:31;99258.25;;;10.80;38.34
72428;BME280;60419;48.880;18.036;2023-03-19T08:17:16;99242.56;;;10.69;38.48
72428;BME280;60419;48.880;18.036;2023-03-19T08:20:01;99246.56;;;10.57;37.85
72428;BME280;60419;48.880;18.036;2023-03-19T08:22:48;99249.84;;;10.41;38.00
72428;BME280;60419;48.880;18.036;2023-03-19T08:25:35;99249.03;;;11.23;37.02
72428;BME280;60419;48.880;18.036;2023-03-19T08:28:20;99250.81;;;11.14;37.01
72428;BME280;60419;48.880;18.036;2023-03-19T08:31:10;99246.03;;;11.11;37.67
72428;BME280;60419;48.880;18.036;2023-03-19T08:33:56;99252.25;;;10.83;37.36
72428;BME280;60419;48.880;18.036;2023-03-19T08:36:44;99251.44;;;11.11;36.26
72428;BME280;60419;48.880;18.036;2023-03-19T08:39:29;99244.75;;;11.44;36.02
72428;BME280;60419;48.880;18.036;2023-03-19T08:42:14;99252.56;;;11.10;36.79
72428;BME280;60419;48.880;18.036;2023-03-19T08:45:00;99243.84;;;11.13;36.38
72428;BME280;60419;48.880;18.036;2023-03-19T08:47:46;99255.50;;;11.22;36.56
72428;BME280;60419;48.880;18.036;2023-03-19T08:50:32;99248.91;;;11.28;35.65
72428;BME280;60419;48.880;18.036;2023-03-19T08:53:17;99238.94;;;11.37;35.98
72428;BME280;60419;48.880;18.036;2023-03-19T08:56:04;99243.59;;;11.59;34.94
72428;BME280;60419;48.880;18.036;2023-03-19T08:58:50;99248.38;;;11.62;35.35
72428;BME280;60419;48.880;18.036;2023-03-19T09:01:35;99246.28;;;11.82;35.36
72428;BME280;60419;48.880;18.036;2023-03-19T09:04:21;99244.75;;;11.89;34.96
72428;BME280;60419;48.880;18.036;2023-03-19T09:07:06;99243.69;;;11.32;35.10
72428;BME280;60419;48.880;18.036;2023-03-19T09:09:52;99238.53;;;11.44;35.44
72428;BME280;60419;48.880;18.036;2023-03-19T09:12:37;99239.50;;;11.48;35.41
72428;BME280;60419;48.880;18.036;2023-03-19T09:15:23;99225.06;;;11.75;36.42
72428;BME280;60419;48.880;18.036;2023-03-19T09:18:08;99229.72;;;12.86;49.47
72428;BME280;60419;48.880;18.036;2023-03-19T09:20:54;99225.72;;;12.34;34.56
72428;BME280;60419;48.880;18.036;2023-03-19T09:23:39;99215.88;;;12.16;34.88
72428;BME280;60419;48.880;18.036;2023-03-19T09:26:25;99214.03;;;12.65;34.39
72428;BME280;60419;48.880;18.036;2023-03-19T09:29:10;99208.31;;;12.67;34.96
72428;BME280;60419;48.880;18.036;2023-03-19T09:31:55;99202.34;;;12.47;35.48
72428;BME280;60419;48.880;18.036;2023-03-19T09:34:41;99203.44;;;13.12;34.45
72428;BME280;60419;48.880;18.036;2023-03-19T09:37:26;99206.00;;;13.52;33.90
72428;BME280;60419;48.880;18.036;2023-03-19T09:40:26;99218.94;;;13.29;32.88
72428;BME280;60419;48.880;18.036;2023-03-19T09:46:13;99211.88;;;12.93;33.82
72428;BME280;60419;48.880;18.036;2023-03-19T09:49:09;99212.50;;;13.08;32.95
72428;BME280;60419;48.880;18.036;2023-03-19T09:54:56;99206.00;;;13.35;34.12
72428;BME280;60419;48.880;18.036;2023-03-19T09:57:42;99213.19;;;13.22;33.06
72428;BME280;60419;48.880;18.036;2023-03-19T10:00:32;99210.31;;;13.27;32.79
72428;BME280;60419;48.880;18.036;2023-03-19T10:06:33;99206.63;;;13.14;33.21
72428;BME280;60419;48.880;18.036;2023-03-19T10:12:35;99187.97;;;12.95;32.87
72428;BME280;60419;48.880;18.036;2023-03-19T10:15:30;99186.22;;;13.08;33.00
72428;BME280;60419;48.880;18.036;2023-03-19T10:18:19;99171.50;;;13.70;32.82
72428;BME280;60419;48.880;18.036;2023-03-19T10:21:18;99174.72;;;13.11;33.28
72428;BME280;60419;48.880;18.036;2023-03-19T10:27:09;99161.47;;;13.44;32.65
72428;BME280;60419;48.880;18.036;2023-03-19T10:29:57;99161.81;;;13.34;32.01
72428;BME280;60419;48.880;18.036;2023-03-19T10:32:45;99172.63;;;13.43;31.99
72428;BME280;60419;48.880;18.036;2023-03-19T10:35:42;99172.75;;;13.81;31.79
72428;BME280;60419;48.880;18.036;2023-03-19T10:38:28;99162.38;;;13.75;31.19
72428;BME280;60419;48.880;18.036;2023-03-19T10:41:20;99169.09;;;13.86;31.51
72428;BME280;60419;48.880;18.036;2023-03-19T10:44:26;99154.31;;;14.04;31.63
72428;BME280;60419;48.880;18.036;2023-03-19T10:47:14;99161.03;;;14.07;31.14
72428;BME280;60419;48.880;18.036;2023-03-19T10:50:01;99145.53;;;13.99;31.16
72428;BME280;60419;48.880;18.036;2023-03-19T10:52:52;99150.25;;;14.19;31.35
72428;BME280;60419;48.880;18.036;2023-03-19T10:55:56;99142.09;;;14.19;30.66
72428;BME280;60419;48.880;18.036;2023-03-19T10:59:02;99144.38;;;14.68;29.79
72428;BME280;60419;48.880;18.036;2023-03-19T11:01:48;99135.88;;;14.48;30.57
72428;BME280;60419;48.880;18.036;2023-03-19T11:04:34;99133.56;;;14.38;30.01
72428;BME280;60419;48.880;18.036;2023-03-19T11:07:20;99132.88;;;14.71;30.35
72428;BME280;60419;48.880;18.036;2023-03-19T11:10:13;99119.94;;;14.68;30.37
72428;BME280;60419;48.880;18.036;2023-03-19T11:13:19;99102.84;;;14.08;30.86
72428;BME280;60419;48.880;18.036;2023-03-19T11:16:07;99114.25;;;14.31;30.59
72428;BME280;60419;48.880;18.036;2023-03-19T11:18:52;99114.97;;;14.40;30.41
72428;BME280;60419;48.880;18.036;2023-03-19T11:21:38;99110.41;;;14.53;30.51
72428;BME280;60419;48.880;18.036;2023-03-19T11:24:25;99115.03;;;15.03;29.87
72428;BME280;60419;48.880;18.036;2023-03-19T11:27:10;99104.03;;;14.28;30.06
72428;BME280;60419;48.880;18.036;2023-03-19T11:29:56;99111.97;;;14.63;30.75
72428;BME280;60419;48.880;18.036;2023-03-19T11:33:00;99103.44;;;14.94;29.61
72428;BME280;60419;48.880;18.036;2023-03-19T11:36:00;99101.31;;;15.00;29.99
72428;BME280;60419;48.880;18.036;2023-03-19T11:48:36;99084.16;;;15.20;29.58
72428;BME280;60419;48.880;18.036;2023-03-19T11:51:33;99096.41;;;15.26;29.79
72428;BME280;60419;48.880;18.036;2023-03-19T12:00:45;99084.94;;;15.54;28.59
72428;BME280;60419;48.880;18.036;2023-03-19T12:12:29;99058.72;;;15.49;28.48
72428;BME280;60419;48.880;18.036;2023-03-19T12:15:27;99047.84;;;15.61;28.93
72428;BME280;60419;48.880;18.036;2023-03-19T12:18:41;99055.25;;;16.10;28.09
72428;BME280;60419;48.880;18.036;2023-03-19T12:27:55;99059.00;;;16.30;27.75
72428;BME280;60419;48.880;18.036;2023-03-19T12:30:44;99053.81;;;15.88;28.16
72428;BME280;60419;48.880;18.036;2023-03-19T12:36:25;99052.66;;;16.01;28.01
72428;BME280;60419;48.880;18.036;2023-03-19T12:39:17;99057.88;;;15.24;29.00
72428;BME280;60419;48.880;18.036;2023-03-19T12:42:09;99046.81;;;15.54;29.53
72428;BME280;60419;48.880;18.036;2023-03-19T12:44:58;99056.78;;;15.50;29.82
72428;BME280;60419;48.880;18.036;2023-03-19T12:47:45;99048.75;;;15.66;28.26
72428;BME280;60419;48.880;18.036;2023-03-19T12:50:33;99030.28;;;15.71;28.74
72428;BME280;60419;48.880;18.036;2023-03-19T12:59:39;99035.75;;;15.96;28.67
72428;BME280;60419;48.880;18.036;2023-03-19T13:02:32;99007.59;;;15.67;28.14
72428;BME280;60419;48.880;18.036;2023-03-19T13:05:38;99021.97;;;15.55;29.56
72428;BME280;60419;48.880;18.036;2023-03-19T13:08:36;99043.75;;;15.55;28.93
72428;BME280;60419;48.880;18.036;2023-03-19T13:14:25;99031.97;;;16.13;28.28
72428;BME280;60419;48.880;18.036;2023-03-19T13:23:29;99036.16;;;14.70;30.80
72428;BME280;60419;48.880;18.036;2023-03-19T13:26:17;99026.50;;;15.27;30.70
72428;BME280;60419;48.880;18.036;2023-03-19T13:31:51;99015.34;;;15.77;31.55
72428;BME280;60419;48.880;18.036;2023-03-19T13:34:37;99016.44;;;15.64;30.46
72428;BME280;60419;48.880;18.036;2023-03-19T13:37:22;99015.31;;;15.53;30.41
72428;BME280;60419;48.880;18.036;2023-03-19T13:40:52;99008.22;;;15.39;30.71
72428;BME280;60419;48.880;18.036;2023-03-19T13:43:40;99014.19;;;14.54;31.30
72428;BME280;60419;48.880;18.036;2023-03-19T13:46:44;99016.44;;;14.52;32.02
72428;BME280;60419;48.880;18.036;2023-03-19T13:49:32;99006.47;;;14.77;31.48
72428;BME280;60419;48.880;18.036;2023-03-19T14:00:58;98998.66;;;14.54;32.20
72428;BME280;60419;48.880;18.036;2023-03-19T14:03:59;99014.81;;;14.51;32.92
72428;BME280;60419;48.880;18.036;2023-03-19T14:06:54;99004.63;;;14.27;32.61
72428;BME280;60419;48.880;18.036;2023-03-19T14:09:42;99000.31;;;14.26;32.42
72428;BME280;60419;48.880;18.036;2023-03-19T14:12:32;99007.59;;;14.55;32.49
72428;BME280;60419;48.880;18.036;2023-03-19T14:15:21;98995.03;;;14.71;32.35
72428;BME280;60419;48.880;18.036;2023-03-19T14:18:12;98996.84;;;14.80;32.14
72428;BME280;60419;48.880;18.036;2023-03-19T14:21:03;98973.19;;;14.17;32.48
72428;BME280;60419;48.880;18.036;2023-03-19T14:23:52;98980.03;;;14.65;32.47
72428;BME280;60419;48.880;18.036;2023-03-19T14:26:42;98989.97;;;14.61;32.33
72428;BME280;60419;48.880;18.036;2023-03-19T14:29:29;98990.13;;;14.23;32.87
72428;BME280;60419;48.880;18.036;2023-03-19T14:32:23;98991.19;;;14.09;33.83
72428;BME280;60419;48.880;18.036;2023-03-19T14:35:15;98997.13;;;14.03;33.80
72428;BME280;60419;48.880;18.036;2023-03-19T14:38:09;98993.34;;;14.37;33.87
72428;BME280;60419;48.880;18.036;2023-03-19T14:40:58;98983.47;;;14.32;33.62
72428;BME280;60419;48.880;18.036;2023-03-19T14:50:33;98997.88;;;14.12;34.23
72428;BME280;60419;48.880;18.036;2023-03-19T14:53:25;99004.91;;;13.83;34.84
72428;BME280;60419;48.880;18.036;2023-03-19T14:56:25;99011.34;;;13.70;34.86
72428;BME280;60419;48.880;18.036;2023-03-19T14:59:11;99010.13;;;14.18;34.76
72428;BME280;60419;48.880;18.036;2023-03-19T15:01:59;98995.75;;;13.88;34.13
72428;BME280;60419;48.880;18.036;2023-03-19T15:04:45;98980.13;;;13.85;34.31
72428;BME280;60419;48.880;18.036;2023-03-19T15:07:37;98998.38;;;14.05;34.81
72428;BME280;60419;48.880;18.036;2023-03-19T15:10:27;99005.88;;;14.08;35.08
72428;BME280;60419;48.880;18.036;2023-03-19T15:19:02;99010.66;;;14.53;34.09
72428;BME280;60419;48.880;18.036;2023-03-19T15:21:48;99011.19;;;14.26;34.23
72428;BME280;60419;48.880;18.036;2023-03-19T15:24:34;99009.66;;;14.37;33.28
72428;BME280;60419;48.880;18.036;2023-03-19T15:27:21;99003.50;;;14.28;33.20
72428;BME280;60419;48.880;18.036;2023-03-19T15:30:24;99001.75;;;13.73;34.50
72428;BME280;60419;48.880;18.036;2023-03-19T15:33:20;99004.69;;;14.18;34.33
72428;BME280;60419;48.880;18.036;2023-03-19T15:36:25;99002.78;;;13.59;35.03
72428;BME280;60419;48.880;18.036;2023-03-19T15:39:14;99007.28;;;13.55;35.06
72428;BME280;60419;48.880;18.036;2023-03-19T15:42:02;99005.06;;;13.40;34.66
72428;BME280;60419;48.880;18.036;2023-03-19T15:44:48;99009.09;;;13.34;35.53
72428;BME280;60419;48.880;18.036;2023-03-19T15:47:39;98997.53;;;13.54;53.71
72428;BME280;60419;48.880;18.036;2023-03-19T15:50:30;99001.19;;;14.39;54.93
72428;BME280;60419;48.880;18.036;2023-03-19T15:53:21;99002.13;;;13.92;34.28
72428;BME280;60419;48.880;18.036;2023-03-19T15:56:07;99006.69;;;13.32;35.72
72428;BME280;60419;48.880;18.036;2023-03-19T15:58:55;99004.41;;;13.43;36.02
72428;BME280;60419;48.880;18.036;2023-03-19T16:01:41;99009.09;;;13.72;35.85
72428;BME280;60419;48.880;18.036;2023-03-19T16:04:27;99014.63;;;13.55;35.51
72428;BME280;60419;48.880;18.036;2023-03-19T16:07:22;99026.00;;;13.78;35.83
72428;BME280;60419;48.880;18.036;2023-03-19T16:10:36;99031.03;;;13.97;35.39
72428;BME280;60419;48.880;18.036;2023-03-19T16:16:16;99031.13;;;13.79;35.81
72428;BME280;60419;48.880;18.036;2023-03-19T16:19:03;99028.19;;;14.14;35.80